Terminal Aerodrome Forecast
Issued by NWS

Home | Current Version | Previous Version | Text Only | Print | Product List | Glossary On
Versions: 1 2 3 4 5 6 7 8 9 10 11 12 13
000
FTAK31 PAJN 231100
TAFAPG
TAF
PAPG 231139Z 2312/2412 VRB03KT P6SM BKN150
     FM231800 06005KT P6SM SCT050 BKN100
     FM232100 06007KT P6SM VCTS SCT040CB BKN100
     FM240300 VRB05KT P6SM BKN100
      AMD LTD TO CLD VIS AND WIND 2312/2315=

USA.gov is the U.S. government's official web portal to all federal, state and local government web resources and services.